Lacey, New Jersey
Current Conditions -  °F | °C
As of 9:35 PM on Thursday 20 Nov 2014 (Local Time) from KMJX Reporting Station
Overcast Overcast  
Wind Chill: 30°   Ceiling: 8000
Heat Index: 37°   Visibility: 10mi
Dew Point: 12°   Wind: 10mph
Humidity: 36%   Direction: 300°WNW
Pressure: 30.01"   Gusts: 20mph
Location:  39.8591°N, 74.2817°W
Report Text: KMJX 210235Z AUTO 30009G17KT 10SM BKN080 OVC100 03/M11 A3001 RMK AO1
Loading
Personal Weather Stations






























Interactive Weather Map New forecast layout! Learn more

10-Day Weather Forecast

Advertisements
Track Severe Weather on mobile